Terminal Aerodrome Forecast
Issued by NWS

Home | Current Version | Previous Version | Text Only | Print | Product List | Glossary On
Versions: 1 2 3 4 5 6 7 8 9 10 11 12 13 14 15 16
000
FTUS42 KMLB 070057 AAA
TAFISM
TAF AMD
KISM 070057Z 0701/0724 06008KT P6SM SCT035
     FM070600 32005KT P6SM SCT250
     FM071400 33007KT P6SM FEW020 FEW250
      AMD NOT SKED 0703/0712=

USA.gov is the U.S. government's official web portal to all federal, state and local government web resources and services.